sensor_id;sensor_type;location;lat;lon;timestamp;pressure;altitude;pressure_sealevel;temperature;humidity
64053;BME280;50299;49.524;8.536;2022-08-19T00:01:23;100093.75;;;19.23;47.34
64053;BME280;50299;49.524;8.536;2022-08-19T00:04:00;100097.75;;;19.33;47.10
64053;BME280;50299;49.524;8.536;2022-08-19T00:06:28;100097.00;;;19.43;47.37
64053;BME280;50299;49.524;8.536;2022-08-19T00:08:57;100093.00;;;19.47;48.36
64053;BME280;50299;49.524;8.536;2022-08-19T00:11:24;100081.38;;;19.49;47.08
64053;BME280;50299;49.524;8.536;2022-08-19T00:13:53;100069.38;;;19.52;47.09
64053;BME280;50299;49.524;8.536;2022-08-19T00:16:23;100061.41;;;19.54;46.50
64053;BME280;50299;49.524;8.536;2022-08-19T00:18:55;100061.31;;;19.33;46.75
64053;BME280;50299;49.524;8.536;2022-08-19T00:21:26;100053.28;;;19.17;47.33
64053;BME280;50299;49.524;8.536;2022-08-19T00:23:54;100049.72;;;19.13;47.53
64053;BME280;50299;49.524;8.536;2022-08-19T00:26:20;100043.69;;;19.11;47.26
64053;BME280;50299;49.524;8.536;2022-08-19T00:28:47;100038.88;;;19.11;47.25
64053;BME280;50299;49.524;8.536;2022-08-19T00:31:13;100046.47;;;19.00;47.91
64053;BME280;50299;49.524;8.536;2022-08-19T00:33:40;100052.84;;;18.90;48.26
64053;BME280;50299;49.524;8.536;2022-08-19T00:36:08;100053.69;;;19.01;47.82
64053;BME280;50299;49.524;8.536;2022-08-19T00:38:36;100055.31;;;19.06;47.81
64053;BME280;50299;49.524;8.536;2022-08-19T00:41:05;100042.88;;;19.03;47.85
64053;BME280;50299;49.524;8.536;2022-08-19T00:43:32;100042.88;;;19.07;48.08
64053;BME280;50299;49.524;8.536;2022-08-19T00:45:58;100042.47;;;19.08;47.83
64053;BME280;50299;49.524;8.536;2022-08-19T00:48:25;100047.69;;;19.06;47.83
64053;BME280;50299;49.524;8.536;2022-08-19T00:50:52;100044.06;;;18.98;48.09
64053;BME280;50299;49.524;8.536;2022-08-19T00:53:28;100041.28;;;18.98;48.12
64053;BME280;50299;49.524;8.536;2022-08-19T00:55:58;100041.66;;;18.90;49.23
64053;BME280;50299;49.524;8.536;2022-08-19T00:58:29;100038.44;;;18.81;48.89
64053;BME280;50299;49.524;8.536;2022-08-19T01:00:56;100035.88;;;18.50;49.31
64053;BME280;50299;49.524;8.536;2022-08-19T01:03:23;100044.22;;;18.36;49.67
64053;BME280;50299;49.524;8.536;2022-08-19T01:05:51;100045.44;;;18.39;50.06
64053;BME280;50299;49.524;8.536;2022-08-19T01:08:20;100050.19;;;18.28;52.65
64053;BME280;50299;49.524;8.536;2022-08-19T01:10:55;100053.06;;;18.45;49.86
64053;BME280;50299;49.524;8.536;2022-08-19T01:13:25;100047.03;;;18.40;49.62
64053;BME280;50299;49.524;8.536;2022-08-19T01:15:56;100033.88;;;18.44;49.49
64053;BME280;50299;49.524;8.536;2022-08-19T01:18:25;100025.97;;;18.64;49.10
64053;BME280;50299;49.524;8.536;2022-08-19T01:20:54;100026.38;;;18.69;48.90
64053;BME280;50299;49.524;8.536;2022-08-19T01:23:22;100033.56;;;18.74;49.29
64053;BME280;50299;49.524;8.536;2022-08-19T01:26:21;100040.78;;;18.75;48.53
64053;BME280;50299;49.524;8.536;2022-08-19T01:28:53;100054.03;;;18.85;48.91
64053;BME280;50299;49.524;8.536;2022-08-19T01:31:28;100052.84;;;18.90;48.35
64053;BME280;50299;49.524;8.536;2022-08-19T01:33:58;100064.47;;;18.99;48.17
64053;BME280;50299;49.524;8.536;2022-08-19T01:38:58;100048.44;;;18.85;48.22
64053;BME280;50299;49.524;8.536;2022-08-19T01:41:26;100050.44;;;18.85;48.10
64053;BME280;50299;49.524;8.536;2022-08-19T01:43:52;100057.66;;;18.93;48.93
64053;BME280;50299;49.524;8.536;2022-08-19T01:46:40;100070.09;;;19.06;48.47
64053;BME280;50299;49.524;8.536;2022-08-19T01:49:07;100067.28;;;18.99;47.77
64053;BME280;50299;49.524;8.536;2022-08-19T01:51:34;100059.69;;;19.03;47.76
64053;BME280;50299;49.524;8.536;2022-08-19T01:54:06;100050.47;;;18.95;48.04
64053;BME280;50299;49.524;8.536;2022-08-19T01:56:32;100052.88;;;18.93;48.10
64053;BME280;50299;49.524;8.536;2022-08-19T01:59:02;100046.84;;;18.95;47.76
64053;BME280;50299;49.524;8.536;2022-08-19T02:01:29;100038.44;;;18.84;47.99
64053;BME280;50299;49.524;8.536;2022-08-19T02:03:58;100051.16;;;18.64;49.23
64053;BME280;50299;49.524;8.536;2022-08-19T02:06:27;100049.94;;;18.61;48.65
64053;BME280;50299;49.524;8.536;2022-08-19T02:08:54;100046.28;;;18.54;50.94
64053;BME280;50299;49.524;8.536;2022-08-19T02:11:32;100047.47;;;18.45;49.03
64053;BME280;50299;49.524;8.536;2022-08-19T02:14:01;100043.81;;;18.34;49.60
64053;BME280;50299;49.524;8.536;2022-08-19T02:16:28;100043.78;;;18.27;49.86
64053;BME280;50299;49.524;8.536;2022-08-19T02:18:55;100043.75;;;18.23;49.63
64053;BME280;50299;49.524;8.536;2022-08-19T02:21:22;100051.03;;;18.35;49.34
64053;BME280;50299;49.524;8.536;2022-08-19T02:23:50;100043.41;;;18.32;50.28
64053;BME280;50299;49.524;8.536;2022-08-19T02:26:17;100046.63;;;18.38;49.49
64053;BME280;50299;49.524;8.536;2022-08-19T02:28:44;100044.97;;;18.30;49.74
64053;BME280;50299;49.524;8.536;2022-08-19T02:31:13;100053.03;;;18.35;50.06
64053;BME280;50299;49.524;8.536;2022-08-19T02:33:41;100058.25;;;18.40;52.33
64053;BME280;50299;49.524;8.536;2022-08-19T02:36:08;100072.22;;;18.36;51.07
64053;BME280;50299;49.524;8.536;2022-08-19T02:38:35;100077.34;;;18.27;50.48
64053;BME280;50299;49.524;8.536;2022-08-19T02:41:07;100077.72;;;18.25;53.79
64053;BME280;50299;49.524;8.536;2022-08-19T02:43:35;100068.19;;;18.34;51.16
64053;BME280;50299;49.524;8.536;2022-08-19T02:46:18;100066.59;;;18.33;51.21
64053;BME280;50299;49.524;8.536;2022-08-19T02:48:48;100059.78;;;18.34;54.35
64053;BME280;50299;49.524;8.536;2022-08-19T02:51:20;100059.44;;;18.39;51.27
64053;BME280;50299;49.524;8.536;2022-08-19T02:53:47;100058.25;;;18.40;50.39
64053;BME280;50299;49.524;8.536;2022-08-19T02:56:13;100066.56;;;18.29;50.21
64053;BME280;50299;49.524;8.536;2022-08-19T02:58:40;100064.16;;;18.28;52.46
64053;BME280;50299;49.524;8.536;2022-08-19T03:01:09;100065.78;;;18.32;50.58
64053;BME280;50299;49.524;8.536;2022-08-19T03:03:37;100068.19;;;18.34;50.84
64053;BME280;50299;49.524;8.536;2022-08-19T03:06:12;100059.44;;;18.39;53.85
64053;BME280;50299;49.524;8.536;2022-08-19T03:08:41;100060.56;;;18.23;50.93
64053;BME280;50299;49.524;8.536;2022-08-19T03:11:29;100057.16;;;18.00;50.75
64053;BME280;50299;49.524;8.536;2022-08-19T03:13:57;100057.09;;;17.89;51.06
64053;BME280;50299;49.524;8.536;2022-08-19T03:16:25;100058.22;;;17.78;54.72
64053;BME280;50299;49.524;8.536;2022-08-19T03:18:53;100050.19;;;17.69;51.67
64053;BME280;50299;49.524;8.536;2022-08-19T03:21:23;100047.22;;;17.51;51.99
64053;BME280;50299;49.524;8.536;2022-08-19T03:23:58;100047.94;;;17.41;52.19
64053;BME280;50299;49.524;8.536;2022-08-19T03:26:25;100048.75;;;17.41;53.09
64053;BME280;50299;49.524;8.536;2022-08-19T03:28:51;100061.59;;;17.49;52.78
64053;BME280;50299;49.524;8.536;2022-08-19T03:31:25;100060.00;;;17.48;53.83
64053;BME280;50299;49.524;8.536;2022-08-19T03:34:17;100064.00;;;17.51;56.61
64053;BME280;50299;49.524;8.536;2022-08-19T03:36:45;100062.00;;;17.51;52.91
64053;BME280;50299;49.524;8.536;2022-08-19T03:39:12;100064.34;;;17.46;52.95
64053;BME280;50299;49.524;8.536;2022-08-19T03:41:41;100053.84;;;17.36;52.56
64053;BME280;50299;49.524;8.536;2022-08-19T03:44:17;100061.28;;;17.21;52.89
64053;BME280;50299;49.524;8.536;2022-08-19T03:46:47;100062.50;;;17.20;54.71
64053;BME280;50299;49.524;8.536;2022-08-19T03:49:14;100059.94;;;17.04;53.75
64053;BME280;50299;49.524;8.536;2022-08-19T03:51:44;100066.56;;;16.92;53.92
64053;BME280;50299;49.524;8.536;2022-08-19T03:54:14;100066.75;;;16.73;54.54
64053;BME280;50299;49.524;8.536;2022-08-19T03:56:42;100075.56;;;16.48;55.28
64053;BME280;50299;49.524;8.536;2022-08-19T03:59:12;100075.16;;;16.46;55.25
64053;BME280;50299;49.524;8.536;2022-08-19T04:01:39;100082.41;;;16.51;55.42
64053;BME280;50299;49.524;8.536;2022-08-19T04:04:06;100083.50;;;16.73;54.76
64053;BME280;50299;49.524;8.536;2022-08-19T04:06:36;100082.03;;;16.83;54.48
64053;BME280;50299;49.524;8.536;2022-08-19T04:09:08;100085.31;;;16.92;56.96
64053;BME280;50299;49.524;8.536;2022-08-19T04:11:39;100075.63;;;16.82;54.30
64053;BME280;50299;49.524;8.536;2022-08-19T04:14:13;100074.50;;;16.87;54.21
64053;BME280;50299;49.524;8.536;2022-08-19T04:16:41;100081.34;;;16.93;54.07
64053;BME280;50299;49.524;8.536;2022-08-19T04:19:10;100085.41;;;16.99;53.72
64053;BME280;50299;49.524;8.536;2022-08-19T04:21:37;100081.06;;;17.05;53.72
64053;BME280;50299;49.524;8.536;2022-08-19T04:24:04;100091.03;;;17.06;53.26
64053;BME280;50299;49.524;8.536;2022-08-19T04:26:33;100079.47;;;17.04;53.84
64053;BME280;50299;49.524;8.536;2022-08-19T04:29:03;100073.50;;;17.06;53.73
64053;BME280;50299;49.524;8.536;2022-08-19T04:31:34;100075.78;;;16.96;53.79
64053;BME280;50299;49.524;8.536;2022-08-19T04:34:06;100073.34;;;16.91;54.25
64053;BME280;50299;49.524;8.536;2022-08-19T04:36:34;100074.25;;;16.99;53.65
64053;BME280;50299;49.524;8.536;2022-08-19T04:39:04;100078.38;;;17.12;53.69
64053;BME280;50299;49.524;8.536;2022-08-19T04:41:31;100084.84;;;17.23;53.44
64053;BME280;50299;49.524;8.536;2022-08-19T04:44:17;100084.31;;;17.11;53.18
64053;BME280;50299;49.524;8.536;2022-08-19T04:46:48;100086.91;;;16.93;54.08
64053;BME280;50299;49.524;8.536;2022-08-19T04:49:21;100077.75;;;16.92;53.82
64053;BME280;50299;49.524;8.536;2022-08-19T04:51:50;100075.25;;;16.84;54.33
64053;BME280;50299;49.524;8.536;2022-08-19T04:54:18;100080.75;;;16.76;54.60
64053;BME280;50299;49.524;8.536;2022-08-19T04:57:06;100081.50;;;16.73;54.60
64053;BME280;50299;49.524;8.536;2022-08-19T04:59:35;100081.59;;;16.81;54.41
64053;BME280;50299;49.524;8.536;2022-08-19T05:02:03;100079.19;;;16.79;54.74
64053;BME280;50299;49.524;8.536;2022-08-19T05:04:30;100084.16;;;16.96;53.95
64053;BME280;50299;49.524;8.536;2022-08-19T05:06:58;100085.50;;;17.10;53.68
64053;BME280;50299;49.524;8.536;2022-08-19T05:09:27;100088.00;;;17.18;53.57
64053;BME280;50299;49.524;8.536;2022-08-19T05:12:14;100084.03;;;17.23;53.30
64053;BME280;50299;49.524;8.536;2022-08-19T05:14:40;100085.88;;;17.42;53.55
64053;BME280;50299;49.524;8.536;2022-08-19T05:17:07;100081.59;;;17.55;53.02
64053;BME280;50299;49.524;8.536;2022-08-19T05:19:53;100085.69;;;17.68;52.31
64053;BME280;50299;49.524;8.536;2022-08-19T05:22:39;100096.03;;;17.64;52.35
64053;BME280;50299;49.524;8.536;2022-08-19T05:25:08;100105.34;;;17.79;52.47
64053;BME280;50299;49.524;8.536;2022-08-19T05:27:39;100109.91;;;17.98;52.00
64053;BME280;50299;49.524;8.536;2022-08-19T05:30:06;100106.44;;;18.12;51.91
64053;BME280;50299;49.524;8.536;2022-08-19T05:32:33;100095.69;;;18.21;50.88
64053;BME280;50299;49.524;8.536;2022-08-19T05:35:00;100100.03;;;18.11;51.30
64053;BME280;50299;49.524;8.536;2022-08-19T05:37:26;100109.28;;;18.19;53.44
64053;BME280;50299;49.524;8.536;2022-08-19T05:39:53;100110.19;;;18.41;52.86
64053;BME280;50299;49.524;8.536;2022-08-19T05:42:20;100115.88;;;18.59;50.78
64053;BME280;50299;49.524;8.536;2022-08-19T05:44:49;100116.75;;;18.70;51.54
64053;BME280;50299;49.524;8.536;2022-08-19T05:47:17;100123.22;;;18.81;51.61
64053;BME280;50299;49.524;8.536;2022-08-19T05:49:46;100126.06;;;18.95;50.86
64053;BME280;50299;49.524;8.536;2022-08-19T05:52:15;100130.94;;;19.16;55.27
64053;BME280;50299;49.524;8.536;2022-08-19T05:54:46;100131.81;;;19.42;50.42
64053;BME280;50299;49.524;8.536;2022-08-19T05:57:19;100142.31;;;19.66;48.43
64053;BME280;50299;49.524;8.536;2022-08-19T05:59:45;100150.31;;;19.86;48.34
64053;BME280;50299;49.524;8.536;2022-08-19T06:02:14;100151.50;;;19.99;47.57
64053;BME280;50299;49.524;8.536;2022-08-19T06:04:41;100167.53;;;20.06;47.87
64053;BME280;50299;49.524;8.536;2022-08-19T06:07:09;100161.56;;;20.14;46.70
64053;BME280;50299;49.524;8.536;2022-08-19T06:09:38;100168.72;;;19.87;46.32
64053;BME280;50299;49.524;8.536;2022-08-19T06:12:05;100169.53;;;19.80;48.03
64053;BME280;50299;49.524;8.536;2022-08-19T06:14:34;100170.34;;;19.98;46.20
64053;BME280;50299;49.524;8.536;2022-08-19T06:17:05;100174.78;;;20.10;46.70
64053;BME280;50299;49.524;8.536;2022-08-19T06:19:33;100183.59;;;20.30;45.77
64053;BME280;50299;49.524;8.536;2022-08-19T06:22:06;100181.97;;;20.54;45.40
64053;BME280;50299;49.524;8.536;2022-08-19T06:24:33;100178.78;;;20.41;44.71
64053;BME280;50299;49.524;8.536;2022-08-19T06:27:01;100177.97;;;19.80;46.05
64053;BME280;50299;49.524;8.536;2022-08-19T06:29:27;100175.56;;;19.71;46.35
64053;BME280;50299;49.524;8.536;2022-08-19T06:31:57;100177.16;;;19.87;47.09
64053;BME280;50299;49.524;8.536;2022-08-19T06:34:24;100181.97;;;19.97;45.94
64053;BME280;50299;49.524;8.536;2022-08-19T09:01:12;100206.09;;;23.60;37.59
64053;BME280;50299;49.524;8.536;2022-08-19T09:03:41;100199.81;;;23.80;37.42
64053;BME280;50299;49.524;8.536;2022-08-19T09:06:17;100207.69;;;23.92;36.29
64053;BME280;50299;49.524;8.536;2022-08-19T09:08:50;100201.75;;;24.10;36.35
64053;BME280;50299;49.524;8.536;2022-08-19T09:17:09;100201.09;;;24.93;34.43
64053;BME280;50299;49.524;8.536;2022-08-19T09:19:51;100205.09;;;24.72;34.42
64053;BME280;50299;49.524;8.536;2022-08-19T09:22:19;100204.22;;;23.81;36.22
64053;BME280;50299;49.524;8.536;2022-08-19T09:24:52;100204.69;;;24.03;35.26
64053;BME280;50299;49.524;8.536;2022-08-19T09:27:20;100201.69;;;24.80;34.29
64053;BME280;50299;49.524;8.536;2022-08-19T09:29:47;100195.25;;;24.13;34.93
64053;BME280;50299;49.524;8.536;2022-08-19T09:32:15;100191.81;;;24.49;34.60
64053;BME280;50299;49.524;8.536;2022-08-19T09:34:52;100186.72;;;23.35;36.22
64053;BME280;50299;49.524;8.536;2022-08-19T09:37:21;100191.25;;;23.56;36.60
64053;BME280;50299;49.524;8.536;2022-08-19T09:39:50;100191.78;;;24.02;35.76
64053;BME280;50299;49.524;8.536;2022-08-19T09:42:17;100194.16;;;24.54;34.82
64053;BME280;50299;49.524;8.536;2022-08-19T09:44:55;100190.06;;;23.57;35.70
64053;BME280;50299;49.524;8.536;2022-08-19T09:47:25;100193.84;;;23.44;36.38
64053;BME280;50299;49.524;8.536;2022-08-19T09:49:51;100201.63;;;24.17;35.09
64053;BME280;50299;49.524;8.536;2022-08-19T09:52:18;100196.38;;;23.04;36.65
64053;BME280;50299;49.524;8.536;2022-08-19T09:54:44;100190.91;;;23.24;36.05
64053;BME280;50299;49.524;8.536;2022-08-19T09:57:17;100183.13;;;23.89;35.43
64053;BME280;50299;49.524;8.536;2022-08-19T09:59:43;100194.44;;;24.12;34.22
64053;BME280;50299;49.524;8.536;2022-08-19T10:02:11;100182.84;;;23.26;34.91
64053;BME280;50299;49.524;8.536;2022-08-19T10:04:38;100189.94;;;23.37;35.88
64053;BME280;50299;49.524;8.536;2022-08-19T10:07:31;100186.69;;;23.93;34.58
64053;BME280;50299;49.524;8.536;2022-08-19T10:10:06;100193.44;;;23.72;34.53
64053;BME280;50299;49.524;8.536;2022-08-19T10:12:33;100190.59;;;24.03;34.13
64053;BME280;50299;49.524;8.536;2022-08-19T10:15:00;100195.44;;;24.49;33.91
64053;BME280;50299;49.524;8.536;2022-08-19T10:17:28;100188.03;;;25.19;32.84
64053;BME280;50299;49.524;8.536;2022-08-19T10:19:59;100183.47;;;25.05;32.85
64053;BME280;50299;49.524;8.536;2022-08-19T10:22:26;100187.13;;;24.62;32.83
64053;BME280;50299;49.524;8.536;2022-08-19T10:24:53;100189.56;;;24.60;33.50
64053;BME280;50299;49.524;8.536;2022-08-19T10:27:20;100180.41;;;25.35;32.49
64053;BME280;50299;49.524;8.536;2022-08-19T10:29:46;100183.25;;;25.88;31.64
64053;BME280;50299;49.524;8.536;2022-08-19T10:32:14;100189.38;;;25.50;32.22
64053;BME280;50299;49.524;8.536;2022-08-19T10:34:41;100178.38;;;24.76;33.71
64053;BME280;50299;49.524;8.536;2022-08-19T10:37:15;100190.94;;;24.52;33.83
64053;BME280;50299;49.524;8.536;2022-08-19T10:39:56;100170.31;;;25.34;32.86
64053;BME280;50299;49.524;8.536;2022-08-19T10:42:23;100175.31;;;23.46;35.95
64053;BME280;50299;49.524;8.536;2022-08-19T10:44:50;100185.59;;;23.87;35.36
64053;BME280;50299;49.524;8.536;2022-08-19T10:47:17;100182.63;;;24.45;35.41
64053;BME280;50299;49.524;8.536;2022-08-19T10:49:52;100170.28;;;25.18;33.58
64053;BME280;50299;49.524;8.536;2022-08-19T10:52:43;100171.41;;;25.21;32.81
64053;BME280;50299;49.524;8.536;2022-08-19T10:55:18;100167.38;;;24.82;33.04
64053;BME280;50299;49.524;8.536;2022-08-19T10:58:03;100158.50;;;25.40;32.31
64053;BME280;50299;49.524;8.536;2022-08-19T11:00:31;100161.13;;;25.83;31.41
64053;BME280;50299;49.524;8.536;2022-08-19T11:02:57;100164.28;;;25.32;31.97
64053;BME280;50299;49.524;8.536;2022-08-19T11:05:24;100162.56;;;26.07;31.07
64053;BME280;50299;49.524;8.536;2022-08-19T11:07:50;100169.41;;;24.38;32.93
64053;BME280;50299;49.524;8.536;2022-08-19T11:10:18;100161.06;;;24.31;33.91
64053;BME280;50299;49.524;8.536;2022-08-19T11:12:48;100163.59;;;24.69;32.28
64053;BME280;50299;49.524;8.536;2022-08-19T11:15:15;100152.69;;;24.91;32.39
64053;BME280;50299;49.524;8.536;2022-08-19T11:17:42;100137.19;;;25.35;31.38
64053;BME280;50299;49.524;8.536;2022-08-19T11:20:12;100123.59;;;25.46;31.34
64053;BME280;50299;49.524;8.536;2022-08-19T11:22:39;100132.19;;;26.08;30.52
64053;BME280;50299;49.524;8.536;2022-08-19T11:25:09;100130.06;;;25.47;31.00
64053;BME280;50299;49.524;8.536;2022-08-19T11:27:38;100117.75;;;25.53;31.32
64053;BME280;50299;49.524;8.536;2022-08-19T11:30:06;100117.97;;;26.70;29.60
64053;BME280;50299;49.524;8.536;2022-08-19T11:32:38;100131.78;;;26.39;29.38
64053;BME280;50299;49.524;8.536;2022-08-19T11:35:05;100123.19;;;25.28;31.52
64053;BME280;50299;49.524;8.536;2022-08-19T11:37:32;100116.72;;;25.80;31.27
64053;BME280;50299;49.524;8.536;2022-08-19T11:40:05;100121.72;;;26.67;30.07
64053;BME280;50299;49.524;8.536;2022-08-19T11:42:32;100125.16;;;26.74;27.59
64053;BME280;50299;49.524;8.536;2022-08-19T11:45:17;100125.66;;;25.78;29.26
64053;BME280;50299;49.524;8.536;2022-08-19T11:47:44;100123.53;;;26.15;29.05
64053;BME280;50299;49.524;8.536;2022-08-19T11:50:10;100119.16;;;25.09;30.66
64053;BME280;50299;49.524;8.536;2022-08-19T11:52:36;100132.34;;;24.36;32.19
64053;BME280;50299;49.524;8.536;2022-08-19T11:55:03;100130.16;;;23.73;33.30
64053;BME280;50299;49.524;8.536;2022-08-19T11:57:31;100124.09;;;23.48;34.15
64053;BME280;50299;49.524;8.536;2022-08-19T11:59:57;100123.31;;;23.74;33.82
64053;BME280;50299;49.524;8.536;2022-08-19T12:02:24;100115.19;;;24.67;31.62
64053;BME280;50299;49.524;8.536;2022-08-19T12:04:51;100121.75;;;24.60;31.80
64053;BME280;50299;49.524;8.536;2022-08-19T12:07:18;100119.25;;;24.22;32.08
64053;BME280;50299;49.524;8.536;2022-08-19T12:09:44;100118.22;;;25.52;29.92
64053;BME280;50299;49.524;8.536;2022-08-19T12:12:14;100115.19;;;26.08;29.19
64053;BME280;50299;49.524;8.536;2022-08-19T12:14:40;100126.22;;;26.51;28.51
64053;BME280;50299;49.524;8.536;2022-08-19T12:17:07;100109.72;;;26.17;29.22
64053;BME280;50299;49.524;8.536;2022-08-19T12:19:36;100119.56;;;24.28;31.00
64053;BME280;50299;49.524;8.536;2022-08-19T12:22:03;100107.44;;;24.91;30.10
64053;BME280;50299;49.524;8.536;2022-08-19T12:24:32;100116.94;;;25.00;29.18
64053;BME280;50299;49.524;8.536;2022-08-19T12:26:59;100126.44;;;24.90;29.43
64053;BME280;50299;49.524;8.536;2022-08-19T12:29:29;100119.81;;;25.69;27.98
64053;BME280;50299;49.524;8.536;2022-08-19T12:31:57;100117.53;;;24.92;29.11
64053;BME280;50299;49.524;8.536;2022-08-19T12:34:28;100123.81;;;26.04;28.34
64053;BME280;50299;49.524;8.536;2022-08-19T12:37:01;100122.38;;;26.13;28.00
64053;BME280;50299;49.524;8.536;2022-08-19T12:39:28;100123.53;;;25.66;27.70
64053;BME280;50299;49.524;8.536;2022-08-19T12:41:54;100109.03;;;26.42;26.42
64053;BME280;50299;49.524;8.536;2022-08-19T12:44:22;100125.16;;;26.74;25.91
64053;BME280;50299;49.524;8.536;2022-08-19T12:46:55;100109.41;;;26.86;25.72
64053;BME280;50299;49.524;8.536;2022-08-19T12:49:21;100113.00;;;26.74;25.93
64053;BME280;50299;49.524;8.536;2022-08-19T12:52:08;100115.59;;;27.23;24.66
64053;BME280;50299;49.524;8.536;2022-08-19T12:54:36;100111.28;;;27.05;26.69
64053;BME280;50299;49.524;8.536;2022-08-19T12:57:07;100117.41;;;27.04;25.77
64053;BME280;50299;49.524;8.536;2022-08-19T12:59:35;100122.31;;;27.80;24.51
64053;BME280;50299;49.524;8.536;2022-08-19T13:02:06;100116.59;;;28.97;22.91
64053;BME280;50299;49.524;8.536;2022-08-19T13:04:34;100117.31;;;29.50;21.42
64053;BME280;50299;49.524;8.536;2022-08-19T13:07:07;100117.78;;;29.18;20.84
64053;BME280;50299;49.524;8.536;2022-08-19T13:09:34;100122.47;;;28.81;21.74
64053;BME280;50299;49.524;8.536;2022-08-19T13:12:01;100113.84;;;28.49;21.99
64053;BME280;50299;49.524;8.536;2022-08-19T13:14:29;100117.78;;;27.44;24.20
64053;BME280;50299;49.524;8.536;2022-08-19T13:16:59;100130.00;;;28.52;23.16
64053;BME280;50299;49.524;8.536;2022-08-19T13:19:25;100126.88;;;29.35;21.80
64053;BME280;50299;49.524;8.536;2022-08-19T13:21:52;100133.19;;;29.30;21.76
64053;BME280;50299;49.524;8.536;2022-08-19T13:24:26;100114.09;;;29.80;21.00
64053;BME280;50299;49.524;8.536;2022-08-19T13:27:00;100118.91;;;30.74;19.86
64053;BME280;50299;49.524;8.536;2022-08-19T13:29:27;100105.59;;;30.35;19.92
64053;BME280;50299;49.524;8.536;2022-08-19T13:32:12;100114.53;;;28.19;22.35
64053;BME280;50299;49.524;8.536;2022-08-19T13:34:57;100112.94;;;29.59;20.96
64053;BME280;50299;49.524;8.536;2022-08-19T13:37:23;100117.19;;;30.40;20.33
64053;BME280;50299;49.524;8.536;2022-08-19T13:40:09;100118.94;;;29.61;20.48
64053;BME280;50299;49.524;8.536;2022-08-19T13:42:39;100113.22;;;29.51;21.13
64053;BME280;50299;49.524;8.536;2022-08-19T13:45:06;100111.16;;;30.38;20.19
64053;BME280;50299;49.524;8.536;2022-08-19T13:47:34;100112.91;;;30.26;20.06
64053;BME280;50299;49.524;8.536;2022-08-19T13:50:04;100102.44;;;30.14;19.78
64053;BME280;50299;49.524;8.536;2022-08-19T13:52:30;100087.41;;;30.14;20.37
64053;BME280;50299;49.524;8.536;2022-08-19T13:54:57;100096.03;;;29.83;20.30
64053;BME280;50299;49.524;8.536;2022-08-19T13:57:24;100090.41;;;30.10;19.96
64053;BME280;50299;49.524;8.536;2022-08-19T13:59:50;100099.28;;;30.21;19.55
64053;BME280;50299;49.524;8.536;2022-08-19T14:02:17;100089.53;;;29.73;20.08
64053;BME280;50299;49.524;8.536;2022-08-19T14:04:43;100091.44;;;29.67;20.46
64053;BME280;50299;49.524;8.536;2022-08-19T14:07:10;100098.91;;;27.76;21.79
64053;BME280;50299;49.524;8.536;2022-08-19T14:09:36;100081.28;;;28.28;21.40
64053;BME280;50299;49.524;8.536;2022-08-19T14:12:03;100089.13;;;28.59;20.88
64053;BME280;50299;49.524;8.536;2022-08-19T14:14:30;100074.75;;;29.07;19.98
64053;BME280;50299;49.524;8.536;2022-08-19T14:16:57;100066.88;;;29.51;19.96
64053;BME280;50299;49.524;8.536;2022-08-19T14:19:24;100073.78;;;29.99;18.22
64053;BME280;50299;49.524;8.536;2022-08-19T14:21:55;100058.25;;;28.48;20.37
64053;BME280;50299;49.524;8.536;2022-08-19T14:24:23;100057.69;;;28.85;19.58
64053;BME280;50299;49.524;8.536;2022-08-19T14:26:50;100048.22;;;28.00;18.82
64053;BME280;50299;49.524;8.536;2022-08-19T14:29:17;100053.81;;;28.69;18.46
64053;BME280;50299;49.524;8.536;2022-08-19T14:31:43;100046.50;;;28.90;18.49
64053;BME280;50299;49.524;8.536;2022-08-19T14:34:10;100045.91;;;28.64;18.56
64053;BME280;50299;49.524;8.536;2022-08-19T14:36:38;100053.56;;;29.48;17.92
64053;BME280;50299;49.524;8.536;2022-08-19T14:39:05;100044.47;;;29.31;18.49
64053;BME280;50299;49.524;8.536;2022-08-19T14:41:31;100044.31;;;30.39;17.74
64053;BME280;50299;49.524;8.536;2022-08-19T14:43:58;100044.19;;;30.06;19.58
64053;BME280;50299;49.524;8.536;2022-08-19T14:46:28;100041.81;;;30.05;19.55
64053;BME280;50299;49.524;8.536;2022-08-19T14:48:55;100055.50;;;29.60;19.50
64053;BME280;50299;49.524;8.536;2022-08-19T14:51:23;100047.78;;;29.79;18.73
64053;BME280;50299;49.524;8.536;2022-08-19T14:53:50;100053.19;;;30.32;18.16
64053;BME280;50299;49.524;8.536;2022-08-19T14:56:20;100047.00;;;30.61;17.41
64053;BME280;50299;49.524;8.536;2022-08-19T14:58:48;100050.22;;;30.45;18.01
64053;BME280;50299;49.524;8.536;2022-08-19T15:01:19;100052.53;;;30.65;18.35
64053;BME280;50299;49.524;8.536;2022-08-19T15:03:47;100049.41;;;30.17;18.92
64053;BME280;50299;49.524;8.536;2022-08-19T15:06:14;100060.00;;;30.35;18.68
64053;BME280;50299;49.524;8.536;2022-08-19T15:08:42;100050.94;;;29.90;19.55
64053;BME280;50299;49.524;8.536;2022-08-19T15:11:11;100049.06;;;30.24;19.65
64053;BME280;50299;49.524;8.536;2022-08-19T15:13:38;100054.78;;;28.97;20.12
64053;BME280;50299;49.524;8.536;2022-08-19T15:16:06;100059.63;;;28.66;20.57
64053;BME280;50299;49.524;8.536;2022-08-19T15:18:44;100045.59;;;30.29;18.73
64053;BME280;50299;49.524;8.536;2022-08-19T15:21:13;100057.16;;;30.25;19.07
64053;BME280;50299;49.524;8.536;2022-08-19T15:23:40;100051.28;;;30.38;19.42
64053;BME280;50299;49.524;8.536;2022-08-19T15:26:10;100052.84;;;29.75;19.24
64053;BME280;50299;49.524;8.536;2022-08-19T15:28:41;100062.91;;;29.58;19.13
64053;BME280;50299;49.524;8.536;2022-08-19T15:31:08;100063.00;;;29.04;19.23
64053;BME280;50299;49.524;8.536;2022-08-19T15:33:50;100060.84;;;28.87;19.41
64053;BME280;50299;49.524;8.536;2022-08-19T15:36:17;100053.75;;;28.91;19.67